sensor_id;sensor_type;location;lat;lon;timestamp;pressure;altitude;pressure_sealevel;temperature;humidity
3444;BME280;1736;52.068;6.968;2023-04-04T00:00:19;102512.56;;;0.55;80.49
3444;BME280;1736;52.068;6.968;2023-04-04T00:02:45;102512.63;;;0.52;80.29
3444;BME280;1736;52.068;6.968;2023-04-04T00:05:12;102513.44;;;0.55;80.64
3444;BME280;1736;52.068;6.968;2023-04-04T00:07:38;102510.88;;;0.51;80.55
3444;BME280;1736;52.068;6.968;2023-04-04T00:10:07;102505.75;;;0.46;81.02
3444;BME280;1736;52.068;6.968;2023-04-04T00:12:35;102507.50;;;0.43;81.22
3444;BME280;1736;52.068;6.968;2023-04-04T00:15:01;102498.84;;;0.39;81.02
3444;BME280;1736;52.068;6.968;2023-04-04T00:17:28;102503.28;;;0.34;81.25
3444;BME280;1736;52.068;6.968;2023-04-04T00:19:54;102492.88;;;0.31;81.70
3444;BME280;1736;52.068;6.968;2023-04-04T00:22:22;102495.53;;;0.28;81.81
3444;BME280;1736;52.068;6.968;2023-04-04T00:24:48;102500.78;;;0.27;82.19
3444;BME280;1736;52.068;6.968;2023-04-04T00:27:17;102500.69;;;0.33;82.53
3444;BME280;1736;52.068;6.968;2023-04-04T00:29:43;102502.47;;;0.31;82.80
3444;BME280;1736;52.068;6.968;2023-04-04T00:32:11;102509.44;;;0.29;82.56
3444;BME280;1736;52.068;6.968;2023-04-04T00:34:37;102510.34;;;0.26;82.23
3444;BME280;1736;52.068;6.968;2023-04-04T00:37:04;102508.66;;;0.24;81.94
3444;BME280;1736;52.068;6.968;2023-04-04T00:39:31;102498.25;;;0.19;82.00
3444;BME280;1736;52.068;6.968;2023-04-04T00:41:58;102490.44;;;0.17;81.76
3444;BME280;1736;52.068;6.968;2023-04-04T00:44:26;102496.56;;;0.15;81.93
3444;BME280;1736;52.068;6.968;2023-04-04T00:46:54;102496.66;;;0.11;81.87
3444;BME280;1736;52.068;6.968;2023-04-04T00:49:21;102495.78;;;0.08;82.27
3444;BME280;1736;52.068;6.968;2023-04-04T00:51:47;102489.75;;;0.05;82.52
3444;BME280;1736;52.068;6.968;2023-04-04T00:54:14;102490.69;;;-0.01;82.92
3444;BME280;1736;52.068;6.968;2023-04-04T00:56:41;102488.97;;;-0.03;82.99
3444;BME280;1736;52.068;6.968;2023-04-04T00:59:07;102483.78;;;-0.06;83.12
3444;BME280;1736;52.068;6.968;2023-04-04T01:01:36;102487.31;;;-0.12;83.67
3444;BME280;1736;52.068;6.968;2023-04-04T01:04:03;102490.81;;;-0.13;83.51
3444;BME280;1736;52.068;6.968;2023-04-04T01:06:29;102482.13;;;-0.13;83.90
3444;BME280;1736;52.068;6.968;2023-04-04T01:08:57;102475.19;;;-0.16;84.44
3444;BME280;1736;52.068;6.968;2023-04-04T01:11:24;102478.69;;;-0.17;84.76
3444;BME280;1736;52.068;6.968;2023-04-04T01:13:51;102475.22;;;-0.19;84.83
3444;BME280;1736;52.068;6.968;2023-04-04T01:16:18;102473.50;;;-0.21;84.68
3444;BME280;1736;52.068;6.968;2023-04-04T01:18:47;102468.38;;;-0.26;84.34
3444;BME280;1736;52.068;6.968;2023-04-04T01:21:14;102474.50;;;-0.28;84.16
3444;BME280;1736;52.068;6.968;2023-04-04T01:23:48;102471.03;;;-0.32;84.29
3444;BME280;1736;52.068;6.968;2023-04-04T01:26:17;102472.75;;;-0.31;83.94
3444;BME280;1736;52.068;6.968;2023-04-04T01:28:46;102478.03;;;-0.35;84.30
3444;BME280;1736;52.068;6.968;2023-04-04T01:31:13;102481.53;;;-0.38;84.44
3444;BME280;1736;52.068;6.968;2023-04-04T01:33:45;102482.44;;;-0.42;84.46
3444;BME280;1736;52.068;6.968;2023-04-04T01:36:21;102483.34;;;-0.43;84.99
3444;BME280;1736;52.068;6.968;2023-04-04T01:38:52;102484.22;;;-0.45;85.79
3444;BME280;1736;52.068;6.968;2023-04-04T01:41:21;102478.97;;;-0.41;86.35
3444;BME280;1736;52.068;6.968;2023-04-04T01:43:49;102482.47;;;-0.45;86.16
3444;BME280;1736;52.068;6.968;2023-04-04T01:46:16;102472.88;;;-0.41;86.15
3444;BME280;1736;52.068;6.968;2023-04-04T01:48:44;102478.16;;;-0.49;85.66
3444;BME280;1736;52.068;6.968;2023-04-04T01:51:11;102474.72;;;-0.51;85.72
3444;BME280;1736;52.068;6.968;2023-04-04T01:53:37;102466.94;;;-0.57;85.79
3444;BME280;1736;52.068;6.968;2023-04-04T01:56:04;102470.47;;;-0.61;85.76
3444;BME280;1736;52.068;6.968;2023-04-04T01:58:32;102460.97;;;-0.66;85.89
3444;BME280;1736;52.068;6.968;2023-04-04T02:00:58;102475.66;;;-0.58;86.40
3444;BME280;1736;52.068;6.968;2023-04-04T02:03:25;102471.38;;;-0.63;86.41
3444;BME280;1736;52.068;6.968;2023-04-04T02:05:52;102467.03;;;-0.63;86.91
3444;BME280;1736;52.068;6.968;2023-04-04T02:08:18;102465.34;;;-0.67;87.25
3444;BME280;1736;52.068;6.968;2023-04-04T02:10:45;102473.84;;;-0.50;86.67
3444;BME280;1736;52.068;6.968;2023-04-04T02:13:11;102474.03;;;-0.69;86.63
3444;BME280;1736;52.068;6.968;2023-04-04T02:15:39;102474.06;;;-0.71;87.22
3444;BME280;1736;52.068;6.968;2023-04-04T02:18:06;102469.69;;;-0.69;87.43
3444;BME280;1736;52.068;6.968;2023-04-04T02:20:32;102480.09;;;-0.66;86.66
3444;BME280;1736;52.068;6.968;2023-04-04T02:22:59;102469.75;;;-0.75;86.54
3444;BME280;1736;52.068;6.968;2023-04-04T02:25:26;102476.69;;;-0.75;86.97
3444;BME280;1736;52.068;6.968;2023-04-04T02:27:52;102478.50;;;-0.85;86.83
3444;BME280;1736;52.068;6.968;2023-04-04T02:30:18;102470.69;;;-0.82;86.76
3444;BME280;1736;52.068;6.968;2023-04-04T02:32:46;102465.50;;;-0.88;86.43
3444;BME280;1736;52.068;6.968;2023-04-04T02:35:14;102475.09;;;-0.93;86.85
3444;BME280;1736;52.068;6.968;2023-04-04T02:37:43;102460.38;;;-0.97;87.37
3444;BME280;1736;52.068;6.968;2023-04-04T02:40:11;102476.81;;;-0.90;87.72
3444;BME280;1736;52.068;6.968;2023-04-04T02:42:41;102470.78;;;-0.92;87.16
3444;BME280;1736;52.068;6.968;2023-04-04T02:45:08;102464.69;;;-0.91;87.29
3444;BME280;1736;52.068;6.968;2023-04-04T02:47:35;102470.81;;;-0.97;87.29
3444;BME280;1736;52.068;6.968;2023-04-04T02:50:04;102463.88;;;-1.01;87.16
3444;BME280;1736;52.068;6.968;2023-04-04T02:52:31;102463.94;;;-1.04;87.65
3444;BME280;1736;52.068;6.968;2023-04-04T02:54:58;102462.22;;;-1.08;87.43
3444;BME280;1736;52.068;6.968;2023-04-04T02:57:24;102458.78;;;-1.14;87.64
3444;BME280;1736;52.068;6.968;2023-04-04T02:59:51;102451.03;;;-1.19;87.85
3444;BME280;1736;52.068;6.968;2023-04-04T03:02:17;102452.75;;;-1.19;88.34
3444;BME280;1736;52.068;6.968;2023-04-04T03:04:44;102440.63;;;-1.23;88.42
3444;BME280;1736;52.068;6.968;2023-04-04T03:07:12;102441.53;;;-1.26;88.75
3444;BME280;1736;52.068;6.968;2023-04-04T03:09:38;102436.28;;;-1.20;88.87
3444;BME280;1736;52.068;6.968;2023-04-04T03:12:09;102453.63;;;-1.19;89.14
3444;BME280;1736;52.068;6.968;2023-04-04T03:14:35;102444.94;;;-1.21;88.84
3444;BME280;1736;52.068;6.968;2023-04-04T03:17:02;102451.84;;;-1.17;89.07
3444;BME280;1736;52.068;6.968;2023-04-04T03:19:29;102443.22;;;-1.23;89.27
3444;BME280;1736;52.068;6.968;2023-04-04T03:21:57;102439.78;;;-1.24;89.42
3444;BME280;1736;52.068;6.968;2023-04-04T03:24:25;102434.59;;;-1.25;89.62
3444;BME280;1736;52.068;6.968;2023-04-04T03:26:52;102438.03;;;-1.26;89.85
3444;BME280;1736;52.068;6.968;2023-04-04T03:29:19;102435.47;;;-1.28;89.60
3444;BME280;1736;52.068;6.968;2023-04-04T03:31:45;102436.38;;;-1.32;89.68
3444;BME280;1736;52.068;6.968;2023-04-04T03:34:12;102426.00;;;-1.41;89.90
3444;BME280;1736;52.068;6.968;2023-04-04T03:36:38;102426.91;;;-1.45;90.19
3444;BME280;1736;52.068;6.968;2023-04-04T03:39:05;102416.47;;;-1.43;90.79
3444;BME280;1736;52.068;6.968;2023-04-04T03:41:33;102419.94;;;-1.38;90.52
3444;BME280;1736;52.068;6.968;2023-04-04T03:44:02;102429.47;;;-1.37;90.52
3444;BME280;1736;52.068;6.968;2023-04-04T03:46:29;102419.06;;;-1.42;89.93
3444;BME280;1736;52.068;6.968;2023-04-04T03:48:56;102415.66;;;-1.48;90.10
3444;BME280;1736;52.068;6.968;2023-04-04T03:51:22;102422.66;;;-1.55;89.99
3444;BME280;1736;52.068;6.968;2023-04-04T03:53:49;102415.72;;;-1.59;89.82
3444;BME280;1736;52.068;6.968;2023-04-04T03:56:16;102409.69;;;-1.65;89.48
3444;BME280;1736;52.068;6.968;2023-04-04T03:58:44;102410.59;;;-1.68;89.81
3444;BME280;1736;52.068;6.968;2023-04-04T04:01:10;102410.59;;;-1.74;89.35
3444;BME280;1736;52.068;6.968;2023-04-04T04:03:37;102410.66;;;-1.77;89.08
3444;BME280;1736;52.068;6.968;2023-04-04T04:06:04;102410.66;;;-1.78;89.42
3444;BME280;1736;52.068;6.968;2023-04-04T04:08:30;102410.66;;;-1.80;89.05
3444;BME280;1736;52.068;6.968;2023-04-04T04:11:02;102413.28;;;-1.81;89.17
3444;BME280;1736;52.068;6.968;2023-04-04T04:13:29;102402.84;;;-1.78;90.18
3444;BME280;1736;52.068;6.968;2023-04-04T04:15:57;102417.56;;;-1.73;90.95
3444;BME280;1736;52.068;6.968;2023-04-04T04:18:23;102419.28;;;-1.69;91.35
3444;BME280;1736;52.068;6.968;2023-04-04T04:20:50;102412.31;;;-1.70;91.58
3444;BME280;1736;52.068;6.968;2023-04-04T04:23:16;102417.50;;;-1.67;91.71
3444;BME280;1736;52.068;6.968;2023-04-04T04:25:46;102426.22;;;-1.68;92.06
3444;BME280;1736;52.068;6.968;2023-04-04T04:28:12;102416.63;;;-1.63;91.85
3444;BME280;1736;52.068;6.968;2023-04-04T04:30:39;102420.13;;;-1.65;92.54
3444;BME280;1736;52.068;6.968;2023-04-04T04:33:07;102416.69;;;-1.70;92.63
3444;BME280;1736;52.068;6.968;2023-04-04T04:35:35;102412.38;;;-1.73;93.20
3444;BME280;1736;52.068;6.968;2023-04-04T04:38:01;102417.59;;;-1.76;93.57
3444;BME280;1736;52.068;6.968;2023-04-04T04:40:28;102412.38;;;-1.77;93.67
3444;BME280;1736;52.068;6.968;2023-04-04T04:42:54;102408.91;;;-1.78;93.11
3444;BME280;1736;52.068;6.968;2023-04-04T04:45:21;102411.50;;;-1.76;92.87
3444;BME280;1736;52.068;6.968;2023-04-04T04:47:47;102412.41;;;-1.82;93.08
3444;BME280;1736;52.068;6.968;2023-04-04T04:50:15;102410.72;;;-1.89;93.06
3444;BME280;1736;52.068;6.968;2023-04-04T04:52:42;102410.72;;;-1.90;93.07
3444;BME280;1736;52.068;6.968;2023-04-04T04:55:09;102407.25;;;-1.89;93.06
3444;BME280;1736;52.068;6.968;2023-04-04T04:57:36;102397.72;;;-1.95;92.90
3444;BME280;1736;52.068;6.968;2023-04-04T05:00:03;102407.25;;;-1.94;92.48
3444;BME280;1736;52.068;6.968;2023-04-04T05:02:30;102405.53;;;-1.89;92.71
3444;BME280;1736;52.068;6.968;2023-04-04T05:04:57;102410.69;;;-1.83;92.56
3444;BME280;1736;52.068;6.968;2023-04-04T05:07:24;102414.09;;;-1.75;92.39
3444;BME280;1736;52.068;6.968;2023-04-04T05:09:51;102415.84;;;-1.77;92.18
3444;BME280;1736;52.068;6.968;2023-04-04T05:12:19;102416.69;;;-1.73;92.14
3444;BME280;1736;52.068;6.968;2023-04-04T05:14:45;102418.41;;;-1.66;91.87
3444;BME280;1736;52.068;6.968;2023-04-04T05:17:12;102412.31;;;-1.64;91.33
3444;BME280;1736;52.068;6.968;2023-04-04T05:19:38;102416.63;;;-1.66;91.65
3444;BME280;1736;52.068;6.968;2023-04-04T05:22:05;102421.00;;;-1.65;91.85
3444;BME280;1736;52.068;6.968;2023-04-04T05:24:33;102412.28;;;-1.61;91.78
3444;BME280;1736;52.068;6.968;2023-04-04T05:27:00;102415.72;;;-1.59;92.07
3444;BME280;1736;52.068;6.968;2023-04-04T05:29:26;102436.53;;;-1.56;91.65
3444;BME280;1736;52.068;6.968;2023-04-04T05:31:53;102438.25;;;-1.52;91.59
3444;BME280;1736;52.068;6.968;2023-04-04T05:34:19;102433.88;;;-1.47;91.27
3444;BME280;1736;52.068;6.968;2023-04-04T05:36:46;102435.56;;;-1.43;91.01
3444;BME280;1736;52.068;6.968;2023-04-04T05:39:12;102439.00;;;-1.38;90.89
3444;BME280;1736;52.068;6.968;2023-04-04T05:41:40;102439.88;;;-1.36;90.56
3444;BME280;1736;52.068;6.968;2023-04-04T05:44:07;102439.81;;;-1.30;90.61
3444;BME280;1736;52.068;6.968;2023-04-04T05:46:34;102446.72;;;-1.23;90.43
3444;BME280;1736;52.068;6.968;2023-04-04T05:49:00;102444.91;;;-1.16;90.86
3444;BME280;1736;52.068;6.968;2023-04-04T05:51:27;102446.53;;;-1.02;89.90
3444;BME280;1736;52.068;6.968;2023-04-04T05:53:53;102446.34;;;-0.84;88.98
3444;BME280;1736;52.068;6.968;2023-04-04T05:56:20;102451.41;;;-0.66;88.51
3444;BME280;1736;52.068;6.968;2023-04-04T05:58:47;102452.97;;;-0.47;87.97
3444;BME280;1736;52.068;6.968;2023-04-04T06:01:14;102460.56;;;-0.29;86.84
3444;BME280;1736;52.068;6.968;2023-04-04T06:03:42;102460.28;;;-0.06;85.72
3444;BME280;1736;52.068;6.968;2023-04-04T06:06:09;102458.25;;;0.19;84.90
3444;BME280;1736;52.068;6.968;2023-04-04T06:08:35;102464.00;;;0.42;82.24
3444;BME280;1736;52.068;6.968;2023-04-04T06:11:02;102465.63;;;0.50;81.03
3444;BME280;1736;52.068;6.968;2023-04-04T06:13:28;102456.69;;;0.65;80.52
3444;BME280;1736;52.068;6.968;2023-04-04T06:15:56;102468.69;;;0.78;79.20
3444;BME280;1736;52.068;6.968;2023-04-04T06:18:23;102462.34;;;0.92;78.80
3444;BME280;1736;52.068;6.968;2023-04-04T06:20:49;102475.16;;;1.09;78.45
3444;BME280;1736;52.068;6.968;2023-04-04T06:23:16;102470.53;;;1.24;77.62
3444;BME280;1736;52.068;6.968;2023-04-04T06:25:42;102461.53;;;1.39;77.57
3444;BME280;1736;52.068;6.968;2023-04-04T06:28:09;102476.34;;;1.40;76.33
3444;BME280;1736;52.068;6.968;2023-04-04T06:30:40;102474.22;;;1.60;76.97
3444;BME280;1736;52.068;6.968;2023-04-04T06:33:07;102470.38;;;1.79;76.50
3444;BME280;1736;52.068;6.968;2023-04-04T06:35:35;102484.75;;;2.01;75.66
3444;BME280;1736;52.068;6.968;2023-04-04T06:38:01;102474.88;;;2.15;75.48
3444;BME280;1736;52.068;6.968;2023-04-04T06:40:29;102478.94;;;2.29;74.49
3444;BME280;1736;52.068;6.968;2023-04-04T06:42:56;102475.09;;;2.44;72.40
3444;BME280;1736;52.068;6.968;2023-04-04T06:45:23;102467.38;;;2.38;71.24
3444;BME280;1736;52.068;6.968;2023-04-04T06:47:51;102477.13;;;2.71;71.48
3444;BME280;1736;52.068;6.968;2023-04-04T06:50:20;102471.00;;;2.70;70.01
3444;BME280;1736;52.068;6.968;2023-04-04T06:52:47;102474.56;;;3.03;69.85
3444;BME280;1736;52.068;6.968;2023-04-04T06:55:14;102473.84;;;3.31;70.24
3444;BME280;1736;52.068;6.968;2023-04-04T06:57:41;102471.53;;;3.53;69.35
3444;BME280;1736;52.068;6.968;2023-04-04T07:00:08;102480.22;;;3.55;67.09
3444;BME280;1736;52.068;6.968;2023-04-04T07:02:35;102477.44;;;3.61;66.75
3444;BME280;1736;52.068;6.968;2023-04-04T07:05:02;102482.72;;;3.59;65.86
3444;BME280;1736;52.068;6.968;2023-04-04T07:07:30;102486.72;;;3.74;64.78
3444;BME280;1736;52.068;6.968;2023-04-04T07:09:56;102483.56;;;3.92;66.25
3444;BME280;1736;52.068;6.968;2023-04-04T07:12:23;102478.94;;;4.00;65.65
3444;BME280;1736;52.068;6.968;2023-04-04T07:14:49;102490.97;;;4.08;65.02
3444;BME280;1736;52.068;6.968;2023-04-04T07:17:16;102475.63;;;4.24;65.77
3444;BME280;1736;52.068;6.968;2023-04-04T07:19:43;102476.34;;;4.29;64.81
3444;BME280;1736;52.068;6.968;2023-04-04T07:22:09;102481.66;;;4.56;64.00
3444;BME280;1736;52.068;6.968;2023-04-04T07:24:38;102482.31;;;4.63;63.01
3444;BME280;1736;52.068;6.968;2023-04-04T07:27:06;102487.38;;;4.69;62.50
3444;BME280;1736;52.068;6.968;2023-04-04T07:29:32;102477.38;;;4.80;63.70
3444;BME280;1736;52.068;6.968;2023-04-04T07:31:59;102477.19;;;4.86;62.87
3444;BME280;1736;52.068;6.968;2023-04-04T07:34:25;102481.44;;;4.90;62.12
3444;BME280;1736;52.068;6.968;2023-04-04T07:36:53;102471.19;;;5.08;62.88
3444;BME280;1736;52.068;6.968;2023-04-04T07:39:20;102483.09;;;5.20;60.88
3444;BME280;1736;52.068;6.968;2023-04-04T07:41:47;102471.94;;;5.12;60.17
3444;BME280;1736;52.068;6.968;2023-04-04T07:44:14;102476.34;;;5.11;59.92
3444;BME280;1736;52.068;6.968;2023-04-04T07:46:40;102473.50;;;4.91;58.37
3444;BME280;1736;52.068;6.968;2023-04-04T07:49:07;102470.47;;;5.03;57.42
3444;BME280;1736;52.068;6.968;2023-04-04T07:51:34;102472.69;;;5.15;57.08
3444;BME280;1736;52.068;6.968;2023-04-04T07:54:00;102477.25;;;5.36;57.50
3444;BME280;1736;52.068;6.968;2023-04-04T07:56:27;102479.81;;;5.38;55.76
3444;BME280;1736;52.068;6.968;2023-04-04T07:58:55;102475.34;;;5.41;56.22
3444;BME280;1736;52.068;6.968;2023-04-04T08:01:21;102471.91;;;5.64;54.89
3444;BME280;1736;52.068;6.968;2023-04-04T08:03:48;102476.44;;;5.59;53.47
3444;BME280;1736;52.068;6.968;2023-04-04T08:06:17;102463.28;;;5.59;52.79
3444;BME280;1736;52.068;6.968;2023-04-04T08:08:43;102469.44;;;5.84;53.20
3444;BME280;1736;52.068;6.968;2023-04-04T08:11:12;102460.63;;;5.85;52.69
3444;BME280;1736;52.068;6.968;2023-04-04T08:13:39;102462.81;;;5.97;53.79
3444;BME280;1736;52.068;6.968;2023-04-04T08:16:07;102471.31;;;6.05;52.89
3444;BME280;1736;52.068;6.968;2023-04-04T08:18:33;102469.09;;;6.16;53.98
3444;BME280;1736;52.068;6.968;2023-04-04T08:21:00;102462.41;;;6.08;53.46
3444;BME280;1736;52.068;6.968;2023-04-04T08:23:26;102460.88;;;6.02;54.36
3444;BME280;1736;52.068;6.968;2023-04-04T08:25:54;102461.16;;;5.95;53.04
3444;BME280;1736;52.068;6.968;2023-04-04T08:28:20;102467.41;;;5.92;52.40
3444;BME280;1736;52.068;6.968;2023-04-04T08:30:47;102467.66;;;5.85;52.57
3444;BME280;1736;52.068;6.968;2023-04-04T08:33:15;102455.28;;;5.62;54.63
3444;BME280;1736;52.068;6.968;2023-04-04T08:35:41;102463.94;;;5.90;54.99
3444;BME280;1736;52.068;6.968;2023-04-04T08:38:08;102452.22;;;5.99;53.85
3444;BME280;1736;52.068;6.968;2023-04-04T08:40:34;102459.94;;;6.03;54.50
3444;BME280;1736;52.068;6.968;2023-04-04T08:43:03;102454.72;;;6.02;52.39
3444;BME280;1736;52.068;6.968;2023-04-04T08:45:31;102457.00;;;5.88;52.28
3444;BME280;1736;52.068;6.968;2023-04-04T08:48:00;102452.22;;;5.99;52.87
3444;BME280;1736;52.068;6.968;2023-04-04T08:50:28;102463.31;;;5.84;51.72
3444;BME280;1736;52.068;6.968;2023-04-04T08:52:55;102450.13;;;6.08;51.55
3444;BME280;1736;52.068;6.968;2023-04-04T08:55:24;102457.16;;;5.83;50.88
3444;BME280;1736;52.068;6.968;2023-04-04T08:57:51;102452.88;;;5.79;49.66
3444;BME280;1736;52.068;6.968;2023-04-04T09:00:18;102454.22;;;5.92;50.87
3444;BME280;1736;52.068;6.968;2023-04-04T09:02:52;102442.31;;;6.05;49.96
3444;BME280;1736;52.068;6.968;2023-04-04T09:05:21;102451.78;;;6.11;49.60
3444;BME280;1736;52.068;6.968;2023-04-04T09:07:52;102450.34;;;6.25;49.85
3444;BME280;1736;52.068;6.968;2023-04-04T09:10:18;102454.50;;;6.31;49.42
3444;BME280;1736;52.068;6.968;2023-04-04T09:12:46;102454.88;;;6.43;50.33
3444;BME280;1736;52.068;6.968;2023-04-04T09:15:14;102446.59;;;6.31;49.66
3444;BME280;1736;52.068;6.968;2023-04-04T09:17:41;102444.34;;;6.43;48.74
3444;BME280;1736;52.068;6.968;2023-04-04T09:20:33;102441.25;;;6.32;47.07
3444;BME280;1736;52.068;6.968;2023-04-04T09:23:04;102452.16;;;6.23;48.35
3444;BME280;1736;52.068;6.968;2023-04-04T09:25:31;102440.47;;;6.07;47.69
3444;BME280;1736;52.068;6.968;2023-04-04T09:27:57;102438.41;;;6.15;46.02
3444;BME280;1736;52.068;6.968;2023-04-04T09:30:27;102438.75;;;6.06;45.02
3444;BME280;1736;52.068;6.968;2023-04-04T09:32:53;102429.47;;;6.19;45.96
3444;BME280;1736;52.068;6.968;2023-04-04T09:35:21;102433.94;;;6.17;44.25
3444;BME280;1736;52.068;6.968;2023-04-04T09:37:48;102434.63;;;6.22;44.65
3444;BME280;1736;52.068;6.968;2023-04-04T09:40:18;102431.88;;;6.25;44.87
3444;BME280;1736;52.068;6.968;2023-04-04T09:42:44;102420.00;;;6.37;45.51
3444;BME280;1736;52.068;6.968;2023-04-04T09:45:11;102427.31;;;6.52;45.39
3444;BME280;1736;52.068;6.968;2023-04-04T09:47:39;102429.19;;;6.48;45.22
3444;BME280;1736;52.068;6.968;2023-04-04T09:50:07;102435.25;;;6.29;44.95
3444;BME280;1736;52.068;6.968;2023-04-04T09:52:34;102424.19;;;6.64;41.16
3444;BME280;1736;52.068;6.968;2023-04-04T09:55:02;102429.25;;;6.68;40.28
3444;BME280;1736;52.068;6.968;2023-04-04T09:57:31;102432.44;;;6.55;40.55
3444;BME280;1736;52.068;6.968;2023-04-04T09:59:59;102424.72;;;6.50;41.10
3444;BME280;1736;52.068;6.968;2023-04-04T10:02:26;102427.03;;;6.36;42.54
3444;BME280;1736;52.068;6.968;2023-04-04T10:04:55;102430.94;;;6.26;43.67
3444;BME280;1736;52.068;6.968;2023-04-04T10:07:23;102427.03;;;6.36;39.08
3444;BME280;1736;52.068;6.968;2023-04-04T10:09:51;102433.78;;;6.43;40.09
3444;BME280;1736;52.068;6.968;2023-04-04T10:12:21;102431.66;;;6.53;40.25
3444;BME280;1736;52.068;6.968;2023-04-04T10:14:54;102426.69;;;6.45;39.12
3444;BME280;1736;52.068;6.968;2023-04-04T10:17:22;102421.16;;;6.51;39.23
3444;BME280;1736;52.068;6.968;2023-04-04T10:19:49;102426.94;;;6.61;41.37
3444;BME280;1736;52.068;6.968;2023-04-04T10:22:19;102423.31;;;6.63;42.62
3444;BME280;1736;52.068;6.968;2023-04-04T10:24:46;102416.28;;;6.64;42.83
3444;BME280;1736;52.068;6.968;2023-04-04T10:27:13;102418.69;;;6.68;42.47
3444;BME280;1736;52.068;6.968;2023-04-04T10:29:40;102419.03;;;6.61;40.46
3444;BME280;1736;52.068;6.968;2023-04-04T10:32:08;102420.22;;;6.52;40.29
3444;BME280;1736;52.068;6.968;2023-04-04T10:34:42;102425.03;;;6.64;40.57
3444;BME280;1736;52.068;6.968;2023-04-04T10:37:14;102413.56;;;6.65;40.15
3444;BME280;1736;52.068;6.968;2023-04-04T10:39:45;102420.06;;;6.78;40.47
3444;BME280;1736;52.068;6.968;2023-04-04T10:42:16;102414.94;;;6.95;41.07
3444;BME280;1736;52.068;6.968;2023-04-04T10:44:44;102412.25;;;6.75;41.19
3444;BME280;1736;52.068;6.968;2023-04-04T10:47:15;102415.88;;;6.73;40.65
3444;BME280;1736;52.068;6.968;2023-04-04T10:49:43;102404.34;;;6.75;40.31
3444;BME280;1736;52.068;6.968;2023-04-04T10:52:10;102401.28;;;6.86;40.09
3444;BME280;1736;52.068;6.968;2023-04-04T10:54:38;102396.59;;;6.92;39.80
3444;BME280;1736;52.068;6.968;2023-04-04T10:57:05;102396.28;;;7.00;39.77
3444;BME280;1736;52.068;6.968;2023-04-04T10:59:32;102384.59;;;7.05;40.03
3444;BME280;1736;52.068;6.968;2023-04-04T11:02:00;102387.53;;;7.19;40.49
3444;BME280;1736;52.068;6.968;2023-04-04T11:04:30;102381.31;;;7.20;38.94
3444;BME280;1736;52.068;6.968;2023-04-04T11:07:08;102388.69;;;7.12;40.66
3444;BME280;1736;52.068;6.968;2023-04-04T11:10:02;102374.19;;;7.02;40.40
3444;BME280;1736;52.068;6.968;2023-04-04T11:12:42;102381.13;;;7.05;40.20
3444;BME280;1736;52.068;6.968;2023-04-04T11:15:11;102374.63;;;6.92;39.32
3444;BME280;1736;52.068;6.968;2023-04-04T11:17:43;102368.09;;;7.00;41.57
3444;BME280;1736;52.068;6.968;2023-04-04T11:20:17;102374.97;;;7.04;40.10
3444;BME280;1736;52.068;6.968;2023-04-04T11:22:43;102371.41;;;7.05;41.15
3444;BME280;1736;52.068;6.968;2023-04-04T11:25:33;102370.41;;;7.08;41.33
3444;BME280;1736;52.068;6.968;2023-04-04T11:28:04;102373.91;;;7.28;41.05
3444;BME280;1736;52.068;6.968;2023-04-04T11:30:36;102381.44;;;7.37;40.22
3444;BME280;1736;52.068;6.968;2023-04-04T11:33:03;102358.94;;;7.09;39.89
3444;BME280;1736;52.068;6.968;2023-04-04T11:35:31;102356.47;;;7.24;42.03
3444;BME280;1736;52.068;6.968;2023-04-04T11:37:59;102344.09;;;7.26;40.42
3444;BME280;1736;52.068;6.968;2023-04-04T11:40:37;102354.31;;;7.34;41.25
3444;BME280;1736;52.068;6.968;2023-04-04T11:43:09;102352.69;;;7.50;40.13
3444;BME280;1736;52.068;6.968;2023-04-04T11:45:36;102346.25;;;7.37;39.54
3444;BME280;1736;52.068;6.968;2023-04-04T11:48:04;102342.81;;;7.35;39.84
3444;BME280;1736;52.068;6.968;2023-04-04T11:50:37;102343.94;;;7.68;40.48
3444;BME280;1736;52.068;6.968;2023-04-04T11:53:04;102342.22;;;7.67;39.68
3444;BME280;1736;52.068;6.968;2023-04-04T11:55:32;102333.16;;;7.91;39.85
3444;BME280;1736;52.068;6.968;2023-04-04T11:58:05;102325.16;;;7.92;39.30
3444;BME280;1736;52.068;6.968;2023-04-04T12:00:35;102323.31;;;7.94;38.92
3444;BME280;1736;52.068;6.968;2023-04-04T12:03:04;102329.44;;;7.95;38.73
3444;BME280;1736;52.068;6.968;2023-04-04T12:05:31;102318.00;;;7.94;37.29
3444;BME280;1736;52.068;6.968;2023-04-04T12:07:59;102319.16;;;7.89;36.54
3444;BME280;1736;52.068;6.968;2023-04-04T12:10:28;102318.22;;;8.08;36.71
3444;BME280;1736;52.068;6.968;2023-04-04T12:12:57;102308.72;;;8.04;37.04
3444;BME280;1736;52.068;6.968;2023-04-04T12:15:26;102309.50;;;8.06;36.47
3444;BME280;1736;52.068;6.968;2023-04-04T12:17:53;102302.59;;;8.22;37.74
3444;BME280;1736;52.068;6.968;2023-04-04T12:20:21;102305.63;;;8.32;37.92
3444;BME280;1736;52.068;6.968;2023-04-04T12:22:48;102307.81;;;8.24;37.99
3444;BME280;1736;52.068;6.968;2023-04-04T12:25:17;102300.00;;;8.02;38.00
3444;BME280;1736;52.068;6.968;2023-04-04T12:27:45;102300.94;;;8.01;39.79
3444;BME280;1736;52.068;6.968;2023-04-04T12:30:13;102297.53;;;7.99;38.68
3444;BME280;1736;52.068;6.968;2023-04-04T12:32:41;102290.16;;;8.06;38.61
3444;BME280;1736;52.068;6.968;2023-04-04T12:35:09;102286.25;;;8.13;38.87
3444;BME280;1736;52.068;6.968;2023-04-04T12:37:36;102289.16;;;8.08;38.48
3444;BME280;1736;52.068;6.968;2023-04-04T12:40:03;102290.66;;;8.49;37.12
3444;BME280;1736;52.068;6.968;2023-04-04T12:42:33;102281.44;;;8.39;36.82
3444;BME280;1736;52.068;6.968;2023-04-04T12:45:00;102278.84;;;8.21;36.99
3444;BME280;1736;52.068;6.968;2023-04-04T12:47:29;102275.38;;;8.37;36.29
3444;BME280;1736;52.068;6.968;2023-04-04T12:49:56;102275.59;;;8.33;35.95
3444;BME280;1736;52.068;6.968;2023-04-04T12:52:27;102272.97;;;8.33;36.20
3444;BME280;1736;52.068;6.968;2023-04-04T12:54:58;102267.06;;;8.45;37.59
3444;BME280;1736;52.068;6.968;2023-04-04T12:57:26;102265.66;;;8.38;36.43
3444;BME280;1736;52.068;6.968;2023-04-04T12:59:54;102262.38;;;8.33;36.78
3444;BME280;1736;52.068;6.968;2023-04-04T13:02:22;102256.28;;;8.14;36.62
3444;BME280;1736;52.068;6.968;2023-04-04T13:04:52;102258.66;;;8.18;36.96
3444;BME280;1736;52.068;6.968;2023-04-04T13:07:21;102252.19;;;8.25;36.40
3444;BME280;1736;52.068;6.968;2023-04-04T13:09:52;102245.34;;;8.21;36.67
3444;BME280;1736;52.068;6.968;2023-04-04T13:12:19;102239.97;;;8.23;37.08
3444;BME280;1736;52.068;6.968;2023-04-04T13:14:57;102221.31;;;8.43;35.77
3444;BME280;1736;52.068;6.968;2023-04-04T13:17:24;102224.56;;;8.82;36.97
3444;BME280;1736;52.068;6.968;2023-04-04T13:19:51;102225.06;;;9.05;37.05